• Join FlightAware (Why Join?)
  • Login
  • US Flag 
01:22AM EDT


 

Airport Tracker/Info


-or-


 

Live Flight TrackerFlight Track Log ✈ SWA1103 ✈ 24-Apr-2013 ✈ KBWI - KMDW

Flight Track Log - Related Links

Times and Time Zones

All times are in EDT time to prevent confusion due to time zone crossing. See the SWA1103 flight status page for this flight to view local times or setup timezone preferences in your user account.

Time Position Orientation Groundspeed Altitude Reporting Facility
EDT Latitude Longitude Course Direction KTS MPH feet Rate Location/Type
06:09PM 39.1500 -76.7000 293° West 206 237 3,200  Level Potomac TRACON
06:10PM 39.1833 -76.8000 293° West 246 283 7,400 3,600 Climbing Potomac TRACON
06:11PM 39.2000 -76.8667 288° West 245 282 10,500 3,420 Climbing Potomac TRACON
06:12PM 39.2167 -76.9500 284° West 254 292 13,900 2,280 Climbing Potomac TRACON
06:13PM 39.2167 -77.0667 270° West 313 360 15,100 1,920 Climbing Potomac TRACON
06:14PM 39.1833 -77.1833 250° West 349 402 17,800 2,460 Climbing Potomac TRACON
06:16PM 39.0494 -77.2942 213° Southwest 362 417 21,800 1,920 Climbing Washington Center
06:17PM 38.9894 -77.3969 233° Southwest 357 411 23,000 1,500 Climbing Washington Center
06:18PM 38.9686 -77.5272 258° West 349 402 24,800 1,680 Climbing Washington Center
06:19PM 38.9478 -77.6628 259° West 385 443 26,400 1,080 Climbing Washington Center
06:20PM 38.9453 -77.8042 269° West 395 455 27,000 660 Climbing Washington Center
06:21PM 38.9511 -77.9378 273° West 416 479 27,800 1,260 Climbing Washington Center
06:22PM 38.9564 -78.0847 273° West 416 479 29,600 1,800 Climbing Washington Center
06:23PM 38.9617 -78.2292 273° West 421 484 31,400 1,800 Climbing Washington Center
06:24PM 38.9644 -78.3761 271° West 421 484 33,300 2,160 Climbing Washington Center
06:25PM 38.9697 -78.5153 273° West 411 473 35,800 2,280 Climbing Washington Center
06:26PM 38.9747 -78.6436 273° West 391 450 37,900 1,080 Climbing Washington Center
06:27PM 38.9778 -78.7692 272° West 372 428 38,000  Climbing Washington Center
06:28PM 38.9806 -78.8950 272° West 365 420 38,000  Level Washington Center
06:29PM 38.9856 -79.0206 273° West 365 420 38,000  Level Washington Center
06:30PM 38.9881 -79.1489 271° West 365 420 38,000  Level Washington Center
06:31PM 38.9906 -79.2744 272° West 365 420 38,000  Level Washington Center
06:32PM 38.9950 -79.3978 273° West 365 420 38,000  Level Washington Center
06:33PM 38.9972 -79.5206 271° West 360 414 38,000  Level Washington Center
06:34PM 39.0008 -79.6625 272° West 360 414 38,000  Level Washington Center
06:35PM 39.0008 -79.7853 270° West 360 414 38,000  Level Washington Center
06:36PM 39.0025 -79.9625 271° West 337 388 38,000  Level Indianapolis Center
06:37PM 39.0039 -80.0786 271° West 336 387 38,000  Level Indianapolis Center
06:38PM 39.0067 -80.2028 272° West 337 388 38,000  Level Indianapolis Center
06:39PM 39.0081 -80.3239 271° West 339 390 38,000  Level Indianapolis Center
06:41PM 39.0097 -80.4444 271° West 339 390 38,000  Level Indianapolis Center
06:42PM 39.0117 -80.5656 271° West 339 390 38,000  Level Indianapolis Center
06:43PM 39.0131 -80.6872 271° West 342 394 38,000  Level Indianapolis Center
06:44PM 39.0197 -80.8319 273° West 340 391 38,000  Level Indianapolis Center
06:45PM 39.0694 -80.9467 299° West 364 419 38,000  Level Indianapolis Center
06:46PM 39.1169 -81.0614 298° West 365 420 38,000  Level Indianapolis Center
06:47PM 39.1644 -81.1775 298° West 369 425 38,000  Level Indianapolis Center
06:48PM 39.2119 -81.2917 298° West 366 421 38,000  Level Indianapolis Center
06:49PM 39.2681 -81.4308 298° West 367 422 38,000  Level Indianapolis Center
06:50PM 39.3156 -81.5472 298° West 368 423 38,000  Level Indianapolis Center
06:51PM 39.3628 -81.6636 298° West 368 423 38,000  Level Indianapolis Center
06:52PM 39.4097 -81.7806 297° West 367 422 38,000  Level Indianapolis Center
06:53PM 39.4561 -81.8950 298° West 361 415 38,000  Level Indianapolis Center
06:54PM 39.4997 -82.0075 297° West 352 405 38,000  Level Indianapolis Center
06:55PM 39.5492 -82.1306 298° West 350 403 38,000  Level Indianapolis Center
06:56PM 39.5936 -82.2425 297° West 349 402 38,000  Level Indianapolis Center
06:57PM 39.6386 -82.3550 297° West 348 400 38,000  Level Indianapolis Center
06:58PM 39.6897 -82.4869 297° West 350 403 38,000  Level Indianapolis Center
06:59PM 39.7356 -82.6003 298° West 352 405 38,000  Level Indianapolis Center
07:00PM 39.7794 -82.7150 296° West 352 405 38,000  Level Indianapolis Center
07:01PM 39.8250 -82.8297 297° West 353 406 38,000  Level Indianapolis Center
07:02PM 39.8694 -82.9456 297° West 356 410 38,000  Level Indianapolis Center
07:03PM 39.9158 -83.0622 297° West 360 414 38,000  Level Indianapolis Center
07:04PM 39.9608 -83.1808 296° West 364 419 38,000  Level Indianapolis Center
07:05PM 40.0133 -83.3175 297° West 362 417 38,000  Level Indianapolis Center
07:06PM 40.0581 -83.4356 296° West 365 420 38,000  Level Indianapolis Center
07:07PM 40.1025 -83.5528 296° West 361 415 38,000  Level Indianapolis Center
07:08PM 40.1472 -83.6706 296° West 361 415 38,000  Level Indianapolis Center
07:09PM 40.1933 -83.7903 297° West 365 420 38,000 -180 Level Indianapolis Center
07:10PM 40.2378 -83.9103 296° West 364 419 37,700 -780 Descending Indianapolis Center
07:12PM 40.3606 -84.1608 303° West 386 444 35,600 -1,020 Descending Indianapolis Center
07:14PM 40.4294 -84.2731 309° West 390 449 34,600 -960 Descending Indianapolis Center
07:15PM 40.4972 -84.3831 309° West 385 443 33,700 -960 Descending Indianapolis Center
07:16PM 40.5633 -84.4936 308° West 381 438 32,700 -1,020 Descending Indianapolis Center
07:17PM 40.6306 -84.6053 308° West 385 443 31,700 -1,080 Descending Indianapolis Center
07:18PM 40.7072 -84.7317 309° West 383 441 30,500 -840 Descending Chicago Center
07:19PM 40.7700 -84.8369 308° West 370 426 30,000 -420 Descending Chicago Center
07:20PM 40.8358 -84.9428 309° West 371 427 29,700 -660 Descending Chicago Center
07:21PM 40.9231 -85.0242 325° Northwest 383 441 28,700 -840 Descending Chicago Center
07:22PM 41.0078 -85.1097 323° Northwest 384 442 28,000 -360 Descending Chicago Center
07:23PM 41.1072 -85.2075 323° Northwest 375 432 28,000 -240 Level Chicago Center
07:24PM 41.1911 -85.2900 324° Northwest 373 429 27,600 -780 Descending Chicago Center
07:25PM 41.2753 -85.3725 324° Northwest 375 432 26,500 -1,320 Descending Chicago Center
07:26PM 41.3581 -85.4556 323° Northwest 372 428 24,900 -1,260 Descending Chicago Center
07:27PM 41.4386 -85.5361 323° Northwest 361 415 23,900 -1,020 Descending Chicago Center
07:28PM 41.4917 -85.6364 305° West 343 395 22,800 -1,020 Descending Chicago Center
07:29PM 41.5017 -85.7572 276° West 327 376 21,800 -1,500 Descending Chicago Center
07:30PM 41.5119 -85.8761 277° West 322 371 19,800 -2,100 Descending Chicago Center
07:31PM 41.5233 -86.0125 276° West 308 354 17,500 -2,040 Descending Chicago Center
07:32PM 41.5244 -86.1231 271° West 301 346 15,600 -1,920 Descending Chicago Center
07:33PM 41.5236 -86.2319 269° West 293 337 13,600 -1,860 Descending Chicago Center
07:34PM 41.5228 -86.3378 269° West 288 331 11,800 -1,560 Descending Chicago Center
07:35PM 41.5222 -86.4411 270° West 280 322 10,400 -900 Descending Chicago Center
07:36PM 41.5225 -86.5469 270° West 284 327 10,000 -840 Descending Chicago Center
07:37PM 41.5214 -86.6619 269° West 258 297 8,700 -1,500 Descending Chicago Center
07:38PM 41.5200 -86.7633 269° West 259 298 7,000 -1,320 Descending Chicago Center
07:39PM 41.5192 -86.8561 269° West 256 295 6,000 -540 Descending Chicago Center
07:40PM 41.5183 -86.9478 269° West 250 288 6,000  Level Chicago Center
07:41PM 41.5178 -87.0389 270° West 247 284 6,000  Level Chicago Center
07:43PM 41.5422 -87.1242 291° West 244 281 6,000  Level Chicago Center
07:43PM 41.5667 -87.2000 293° West 250 288 6,000  Level Chicago TRACON
07:44PM 41.5833 -87.3000 283° West 248 285 6,000 -120 Level Chicago TRACON
07:45PM 41.6167 -87.3833 298° West 248 285 5,800 -420 Descending Chicago TRACON
07:46PM 41.6161 -87.4014 268° West 249 287 5,500 -660 Descending Chicago Center
07:47PM 41.6372 -87.4831 289° West 243 280 4,900 -780 Descending Chicago Center
07:48PM 41.6833 -87.6000 298° West 212 244 3,500 -960 Descending Chicago TRACON
07:49PM 41.6947 -87.6267 300° West 210 242 3,000 -1,140 Descending Chicago Center
07:49PM 41.7167 -87.6500 322° Northwest 198 228 2,400 -840 Descending Chicago TRACON
07:50PM 41.7500 -87.7000 312° West 183 211 1,700 -420 Descending Chicago TRACON
07:51PM 41.8000 -87.7000 360° North 162 186 1,600 -240 Descending Chicago TRACON
07:53PM 41.7850 -87.7519 249° West 164 189 1,100 -360 Descending Chicago Center